createdAt,value
2019-01-23T00:02:18.355Z,94.10
2019-01-23T00:04:46.161Z,94.40
2019-01-23T00:07:13.779Z,94.50
2019-01-23T00:09:41.173Z,95.20
2019-01-23T00:12:08.631Z,93.80
2019-01-23T00:14:36.130Z,94.80
2019-01-23T00:17:03.978Z,94.20
2019-01-23T00:19:31.341Z,95.00
2019-01-23T00:21:58.720Z,94.30
2019-01-23T00:24:26.381Z,94.00
2019-01-23T00:26:53.813Z,93.80
2019-01-23T00:29:22.118Z,94.10
2019-01-23T00:31:49.819Z,93.80
2019-01-23T00:34:17.321Z,94.60
2019-01-23T00:36:44.832Z,93.80
2019-01-23T00:39:12.465Z,94.10
2019-01-23T00:41:39.852Z,94.20
2019-01-23T00:44:08.531Z,94.60
2019-01-23T00:46:36.122Z,94.10
2019-01-23T00:49:03.760Z,94.20
2019-01-23T00:51:31.484Z,94.60
2019-01-23T00:53:59.000Z,94.00
2019-01-23T00:56:26.405Z,93.60
2019-01-23T00:58:53.820Z,93.50
2019-01-23T01:01:22.398Z,94.20
2019-01-23T01:03:49.790Z,94.10
2019-01-23T01:06:17.401Z,94.70
2019-01-23T01:08:45.048Z,94.10
2019-01-23T01:11:12.664Z,93.90
2019-01-23T01:13:40.352Z,94.20
2019-01-23T01:16:07.853Z,93.60
2019-01-23T01:18:35.481Z,93.70
2019-01-23T01:21:03.070Z,93.50
2019-01-23T01:23:30.706Z,93.80
2019-01-23T01:25:58.160Z,93.20
2019-01-23T01:28:25.600Z,93.00
2019-01-23T01:30:53.215Z,94.00
2019-01-23T01:33:20.709Z,93.40
2019-01-23T01:35:48.273Z,94.00
2019-01-23T01:38:15.676Z,93.80
2019-01-23T01:40:43.254Z,93.60
2019-01-23T01:43:11.010Z,93.50
2019-01-23T01:45:38.577Z,93.80
2019-01-23T01:48:06.219Z,94.20
2019-01-23T01:50:33.936Z,94.50
2019-01-23T01:53:01.537Z,93.90
2019-01-23T01:55:29.181Z,94.30
2019-01-23T01:58:00.306Z,94.10
2019-01-23T02:00:27.800Z,94.20
2019-01-23T02:02:55.455Z,94.30
2019-01-23T02:05:23.136Z,93.90
2019-01-23T02:07:51.327Z,94.00
2019-01-23T02:10:20.199Z,94.40
2019-01-23T02:12:48.672Z,94.30
2019-01-23T02:15:17.304Z,94.60
2019-01-23T02:17:45.075Z,94.90
2019-01-23T02:20:18.983Z,94.30
2019-01-23T02:22:47.752Z,94.70
2019-01-23T02:25:15.493Z,94.50
2019-01-23T02:27:44.126Z,94.30
2019-01-23T02:30:14.166Z,94.00
2019-01-23T02:32:41.965Z,94.10
2019-01-23T02:35:09.655Z,94.50
2019-01-23T02:37:37.378Z,94.80
2019-01-23T02:40:09.250Z,94.90
2019-01-23T02:42:37.894Z,94.50
2019-01-23T02:45:05.941Z,94.20
2019-01-23T02:47:33.700Z,94.70
2019-01-23T02:50:01.220Z,95.40
2019-01-23T02:52:28.811Z,95.40
2019-01-23T02:54:56.400Z,94.50
2019-01-23T02:57:24.045Z,95.00
2019-01-23T02:59:51.693Z,95.00
2019-01-23T03:02:19.369Z,94.50
2019-01-23T03:04:47.044Z,93.90
2019-01-23T03:07:14.695Z,94.50
2019-01-23T03:09:43.283Z,94.60
2019-01-23T03:12:10.970Z,94.80
2019-01-23T03:14:38.426Z,94.90
2019-01-23T03:17:06.051Z,94.80
2019-01-23T03:19:33.797Z,94.50
2019-01-23T03:22:01.499Z,94.50
2019-01-23T03:24:28.893Z,94.40
2019-01-23T03:26:56.591Z,94.30
2019-01-23T03:29:24.719Z,94.30
2019-01-23T03:31:52.570Z,94.30
2019-01-23T03:34:20.293Z,94.50
2019-01-23T03:36:47.810Z,95.40
2019-01-23T03:39:15.574Z,94.50
2019-01-23T03:41:43.278Z,94.20
2019-01-23T03:44:10.898Z,94.80
2019-01-23T03:46:38.323Z,94.90
2019-01-23T03:49:05.848Z,95.00
2019-01-23T03:51:33.477Z,94.80
2019-01-23T03:54:01.422Z,94.80
2019-01-23T03:56:28.879Z,94.30
2019-01-23T03:58:57.076Z,94.20
2019-01-23T04:01:24.889Z,94.60
2019-01-23T04:03:52.459Z,94.90
2019-01-23T04:06:20.136Z,94.80
2019-01-23T04:08:47.688Z,94.40
2019-01-23T04:11:15.074Z,94.40
2019-01-23T04:13:42.705Z,95.00
2019-01-23T04:16:10.239Z,95.50
2019-01-23T04:18:38.284Z,95.00
2019-01-23T04:21:05.902Z,94.60
2019-01-23T04:23:33.451Z,94.60
2019-01-23T04:26:00.902Z,94.40
2019-01-23T04:28:28.351Z,94.90
2019-01-23T04:30:56.062Z,94.80
2019-01-23T04:33:23.527Z,94.50
2019-01-23T04:35:51.040Z,94.20
2019-01-23T04:38:18.630Z,93.90
2019-01-23T04:40:46.180Z,94.20
2019-01-23T04:43:13.593Z,93.80
2019-01-23T04:45:41.206Z,93.90
2019-01-23T04:48:08.594Z,94.20
2019-01-23T04:50:56.062Z,93.60
2019-01-23T04:53:31.738Z,93.60
2019-01-23T04:55:59.274Z,93.50
2019-01-23T04:58:26.891Z,93.50
2019-01-23T05:00:54.569Z,94.10
2019-01-23T05:03:22.335Z,93.40
2019-01-23T05:05:50.041Z,94.10
2019-01-23T05:08:17.460Z,93.70
2019-01-23T05:10:46.306Z,93.60
2019-01-23T05:13:13.892Z,93.60
2019-01-23T05:15:41.404Z,94.50
2019-01-23T05:18:09.143Z,94.20
2019-01-23T05:20:36.713Z,94.10
2019-01-23T05:23:04.389Z,93.60
2019-01-23T05:25:31.915Z,93.20
2019-01-23T05:27:59.389Z,93.60
2019-01-23T05:30:27.030Z,93.90
2019-01-23T05:32:54.669Z,93.50
2019-01-23T05:35:22.296Z,93.60
2019-01-23T05:37:49.811Z,93.90
2019-01-23T05:40:17.466Z,93.90
2019-01-23T05:42:45.075Z,93.50
2019-01-23T05:45:13.172Z,93.10
2019-01-23T05:47:41.001Z,93.70
2019-01-23T05:50:11.762Z,93.80
2019-01-23T05:52:39.312Z,93.70
2019-01-23T05:55:08.706Z,94.00
2019-01-23T05:57:36.264Z,94.10
2019-01-23T06:00:07.558Z,93.90
2019-01-23T06:02:35.443Z,93.90
2019-01-23T06:05:04.784Z,93.60
2019-01-23T06:07:32.578Z,93.90
2019-01-23T06:10:00.307Z,93.60
2019-01-23T06:12:28.152Z,93.60
2019-01-23T06:14:55.706Z,93.40
2019-01-23T06:17:23.465Z,93.60
2019-01-23T06:19:50.920Z,93.40
2019-01-23T06:22:18.636Z,93.80
2019-01-23T06:24:46.191Z,93.60
2019-01-23T06:27:13.724Z,93.90
2019-01-23T06:29:41.181Z,93.40
2019-01-23T06:32:08.883Z,93.50
2019-01-23T06:34:36.340Z,93.80
2019-01-23T06:37:04.143Z,93.50
2019-01-23T06:39:31.791Z,93.50
2019-01-23T06:41:59.318Z,93.50
2019-01-23T06:44:26.717Z,93.30
2019-01-23T06:46:55.742Z,94.20
2019-01-23T06:49:23.151Z,93.90
2019-01-23T06:51:53.410Z,93.70
2019-01-23T06:54:21.246Z,93.70
2019-01-23T06:56:50.752Z,94.00
2019-01-23T06:59:18.304Z,93.50
2019-01-23T07:01:46.037Z,93.70
2019-01-23T07:04:13.635Z,93.40
2019-01-23T07:06:41.118Z,93.20
2019-01-23T07:09:08.920Z,93.00
2019-01-23T07:11:36.649Z,93.40
2019-01-23T07:14:04.447Z,93.10
2019-01-23T07:16:31.946Z,93.30
2019-01-23T07:18:59.737Z,93.00
2019-01-23T07:21:27.278Z,92.90
2019-01-23T07:23:55.002Z,92.90
2019-01-23T07:26:22.583Z,92.70
2019-01-23T07:28:50.436Z,93.00
2019-01-23T07:31:17.978Z,92.80
2019-01-23T07:33:46.742Z,93.30
2019-01-23T07:36:14.365Z,93.00
2019-01-23T07:38:41.997Z,92.90
2019-01-23T07:41:09.727Z,93.50
2019-01-23T07:43:37.542Z,93.50
2019-01-23T07:46:05.205Z,93.40
2019-01-23T07:48:36.370Z,93.60
2019-01-23T07:51:04.294Z,93.40
2019-01-23T07:53:31.871Z,94.00
2019-01-23T07:55:59.494Z,93.70
2019-01-23T07:58:27.025Z,93.60
2019-01-23T08:00:54.601Z,93.40
2019-01-23T08:03:22.095Z,93.90
2019-01-23T08:05:49.976Z,94.50
2019-01-23T08:08:18.257Z,94.20
2019-01-23T08:10:45.950Z,94.00
2019-01-23T08:13:13.724Z,94.20
2019-01-23T08:16:10.946Z,94.50
2019-01-23T08:18:38.842Z,94.50
2019-01-23T08:21:10.463Z,94.60
2019-01-23T08:23:43.032Z,94.60
2019-01-23T08:26:11.657Z,94.80
2019-01-23T08:28:39.322Z,95.20
2019-01-23T08:31:06.996Z,94.60
2019-01-23T08:33:34.400Z,94.40
2019-01-23T08:36:02.243Z,94.40
2019-01-23T08:38:30.903Z,94.10
2019-01-23T08:40:58.525Z,94.00
2019-01-23T08:43:26.171Z,94.50
2019-01-23T08:45:53.807Z,93.80
2019-01-23T08:48:21.423Z,94.00
2019-01-23T08:50:49.419Z,93.70
2019-01-23T08:53:17.050Z,94.40
2019-01-23T08:55:44.445Z,94.30
2019-01-23T08:58:11.975Z,94.10
2019-01-23T09:00:45.842Z,94.40
2019-01-23T09:03:09.110Z,94.30
2019-01-23T09:05:36.671Z,93.90
2019-01-23T09:08:05.435Z,93.70
2019-01-23T09:10:33.257Z,93.80
2019-01-23T09:13:01.781Z,93.60
2019-01-23T09:15:29.473Z,93.90
2019-01-23T09:17:56.940Z,93.90
2019-01-23T09:20:24.397Z,94.40
2019-01-23T09:22:51.821Z,93.80
2019-01-23T09:25:21.766Z,93.20
2019-01-23T09:27:49.635Z,93.50
2019-01-23T09:30:24.630Z,93.20
2019-01-23T09:33:19.317Z,93.50
2019-01-23T09:36:14.788Z,93.50
2019-01-23T09:39:37.300Z,93.20
2019-01-23T09:42:40.603Z,93.50
2019-01-23T09:46:24.423Z,94.50
2019-01-23T09:50:10.404Z,94.10
2019-01-23T09:53:11.375Z,93.90
2019-01-23T09:55:39.181Z,94.40
2019-01-23T09:58:09.145Z,93.50
2019-01-23T10:00:36.723Z,93.90
2019-01-23T10:03:04.412Z,94.70
2019-01-23T10:05:31.887Z,94.50
2019-01-23T10:07:59.328Z,94.10
2019-01-23T10:10:27.745Z,93.80
2019-01-23T10:12:55.209Z,93.80
2019-01-23T10:15:54.675Z,93.50
2019-01-23T10:18:22.387Z,93.20
2019-01-23T10:20:49.839Z,93.30
2019-01-23T10:23:17.227Z,93.20
2019-01-23T10:25:44.900Z,92.90
2019-01-23T10:28:12.258Z,92.60
2019-01-23T10:30:39.832Z,92.70
2019-01-23T10:33:07.448Z,92.60
2019-01-23T10:35:35.109Z,92.90
2019-01-23T10:38:02.763Z,92.50
2019-01-23T10:40:30.296Z,92.90
2019-01-23T10:42:57.752Z,92.50
2019-01-23T10:45:25.202Z,92.00
2019-01-23T10:47:56.144Z,92.40
2019-01-23T10:50:22.148Z,92.30
2019-01-23T10:52:49.581Z,92.10
2019-01-23T10:55:17.062Z,91.70
2019-01-23T10:57:44.930Z,91.70
2019-01-23T11:00:15.892Z,91.50
2019-01-23T11:02:43.585Z,91.20
2019-01-23T11:05:15.212Z,91.30
2019-01-23T11:07:43.730Z,91.10
2019-01-23T11:10:14.682Z,91.00
2019-01-23T11:12:42.457Z,91.00
2019-01-23T11:15:10.415Z,90.80
2019-01-23T11:17:38.169Z,90.80
2019-01-23T11:20:09.767Z,91.30
2019-01-23T11:22:37.352Z,91.10
2019-01-23T11:25:06.157Z,91.60
2019-01-23T11:27:34.228Z,91.30
2019-01-23T11:30:01.833Z,91.30
2019-01-23T11:32:29.419Z,91.00
2019-01-23T11:34:57.116Z,90.70
2019-01-23T11:37:24.832Z,90.60
2019-01-23T11:39:52.502Z,90.00
2019-01-23T11:42:20.177Z,90.10
2019-01-23T11:44:47.746Z,90.10
2019-01-23T11:47:15.371Z,90.00
2019-01-23T11:49:42.832Z,90.00
2019-01-23T11:52:10.670Z,90.10
2019-01-23T11:54:38.207Z,90.80
2019-01-23T11:57:06.202Z,90.20
2019-01-23T11:59:33.598Z,90.20
2019-01-23T12:02:01.430Z,90.20
2019-01-23T12:04:28.884Z,90.20
2019-01-23T12:06:56.798Z,90.50
2019-01-23T12:09:24.343Z,90.20
2019-01-23T12:11:51.898Z,90.10
2019-01-23T12:14:19.291Z,90.00
2019-01-23T12:16:46.742Z,90.00
2019-01-23T12:19:14.169Z,90.00
2019-01-23T12:21:41.741Z,88.70
2019-01-23T12:24:09.404Z,88.70
2019-01-23T12:26:37.294Z,89.00
2019-01-23T12:29:05.453Z,89.20
2019-01-23T12:31:35.101Z,88.60
2019-01-23T12:34:02.452Z,88.30
2019-01-23T12:36:29.935Z,87.80
2019-01-23T12:38:57.484Z,87.40
2019-01-23T12:41:25.048Z,89.70
2019-01-23T12:43:52.717Z,88.20
2019-01-23T12:46:20.510Z,88.50
2019-01-23T12:48:48.011Z,88.10
2019-01-23T12:51:15.549Z,87.90
2019-01-23T12:53:43.103Z,89.30
2019-01-23T12:56:10.592Z,89.10
2019-01-23T12:58:38.697Z,88.40
2019-01-23T13:01:06.197Z,88.50
2019-01-23T13:03:33.797Z,88.20
2019-01-23T13:06:01.560Z,88.00
2019-01-23T13:08:29.017Z,87.80
2019-01-23T13:10:58.170Z,87.00
2019-01-23T13:13:25.661Z,86.90
2019-01-23T13:15:54.561Z,86.60
2019-01-23T13:18:22.042Z,86.50
2019-01-23T13:20:49.749Z,87.00
2019-01-23T13:23:19.794Z,86.10
2019-01-23T13:25:47.504Z,86.20
2019-01-23T13:28:14.894Z,86.70
2019-01-23T13:30:42.580Z,86.70
2019-01-23T13:33:10.290Z,87.10
2019-01-23T13:35:38.983Z,88.90
2019-01-23T13:38:11.433Z,89.80
2019-01-23T13:40:38.997Z,87.90
2019-01-23T13:43:07.116Z,88.10
2019-01-23T13:45:34.833Z,88.00
2019-01-23T13:48:06.279Z,88.10
2019-01-23T13:50:33.914Z,88.00
2019-01-23T13:53:02.123Z,87.10
2019-01-23T13:55:29.751Z,88.50
2019-01-23T13:57:57.326Z,88.00
2019-01-23T14:00:28.752Z,90.10
2019-01-23T14:02:56.430Z,88.60
2019-01-23T14:05:24.205Z,88.10
2019-01-23T14:07:51.673Z,87.90
2019-01-23T14:10:19.268Z,88.90
2019-01-23T14:12:46.850Z,88.90
2019-01-23T14:15:19.360Z,89.20
2019-01-23T14:17:46.827Z,89.10
2019-01-23T14:20:14.948Z,88.50
2019-01-23T14:22:42.625Z,89.30
2019-01-23T14:25:12.222Z,89.40
2019-01-23T14:27:39.893Z,88.40
2019-01-23T14:30:14.661Z,87.80
2019-01-23T14:32:42.116Z,87.40
2019-01-23T14:35:09.913Z,87.90
2019-01-23T14:37:37.267Z,87.40
2019-01-23T14:40:05.241Z,87.40
2019-01-23T14:42:32.741Z,88.00
2019-01-23T14:45:02.034Z,88.30
2019-01-23T14:47:30.050Z,89.00
2019-01-23T14:49:58.106Z,87.90
2019-01-23T14:52:25.707Z,88.80
2019-01-23T14:54:53.212Z,89.10
2019-01-23T14:57:20.853Z,89.60
2019-01-23T14:59:48.665Z,89.20
2019-01-23T15:02:16.280Z,89.40
2019-01-23T15:04:43.852Z,89.30
2019-01-23T15:07:11.823Z,90.20
2019-01-23T15:09:39.297Z,90.10
2019-01-23T15:12:07.428Z,88.80
2019-01-23T15:14:34.987Z,88.70
2019-01-23T15:17:02.734Z,90.20
2019-01-23T15:19:30.342Z,89.90
2019-01-23T15:21:57.889Z,89.30
2019-01-23T15:24:25.354Z,90.00
2019-01-23T15:26:53.117Z,88.80
2019-01-23T15:29:20.598Z,89.00
2019-01-23T15:31:48.042Z,89.20
2019-01-23T15:34:16.386Z,89.20
2019-01-23T15:36:43.970Z,90.10
2019-01-23T15:39:11.596Z,90.30
2019-01-23T15:41:39.195Z,90.00
2019-01-23T15:44:07.846Z,90.10
2019-01-23T15:46:35.401Z,89.80
2019-01-23T15:49:03.740Z,90.30
2019-01-23T15:51:31.540Z,91.40
2019-01-23T15:53:59.076Z,90.10
2019-01-23T15:56:26.543Z,90.60
2019-01-23T17:10:40.341Z,89.30
2019-01-23T17:13:09.144Z,89.70
2019-01-23T17:15:36.964Z,89.50
2019-01-23T17:18:06.370Z,89.20
2019-01-23T17:20:41.794Z,89.00
2019-01-23T17:23:09.784Z,89.90
2019-01-23T17:25:37.676Z,89.60
2019-01-23T17:28:09.628Z,90.30
2019-01-23T17:30:37.505Z,90.30
2019-01-23T17:33:05.784Z,90.40
2019-01-23T17:35:33.502Z,90.00
2019-01-23T17:38:01.407Z,89.10
2019-01-23T17:40:30.034Z,89.30
2019-01-23T17:42:57.866Z,90.10
2019-01-23T17:45:29.300Z,90.00
2019-01-23T17:47:57.296Z,90.00
2019-01-23T17:50:25.000Z,90.00
2019-01-23T17:52:53.247Z,89.90
2019-01-23T17:55:29.412Z,89.60
2019-01-23T17:57:58.298Z,90.00
2019-01-23T18:00:28.358Z,90.10
2019-01-23T18:02:56.184Z,89.80
2019-01-23T18:05:24.086Z,90.20
2019-01-23T18:07:51.821Z,90.10
2019-01-23T18:10:19.583Z,90.00
2019-01-23T18:12:47.199Z,89.90
2019-01-23T18:15:17.769Z,89.30
2019-01-23T18:17:45.801Z,89.20
2019-01-23T18:20:17.149Z,89.30
2019-01-23T18:22:46.864Z,89.10
2019-01-23T18:25:15.183Z,89.70
2019-01-23T18:27:43.382Z,90.20
2019-01-23T18:30:18.661Z,89.50
2019-01-23T18:32:47.899Z,90.30
2019-01-23T18:35:35.420Z,89.90
2019-01-23T18:38:38.823Z,90.00
2019-01-23T18:41:57.642Z,90.20
2019-01-23T18:45:41.176Z,90.40
2019-01-23T18:49:30.729Z,90.60
2019-01-23T18:52:10.890Z,90.30
2019-01-23T18:54:39.877Z,90.20
2019-01-23T18:57:11.868Z,90.20
2019-01-23T18:59:39.674Z,90.50
2019-01-23T19:02:07.679Z,90.40
2019-01-23T19:04:35.431Z,90.30
2019-01-23T19:07:03.264Z,90.20
2019-01-23T19:09:31.001Z,89.70
2019-01-23T19:11:59.171Z,89.90
2019-01-23T19:14:26.980Z,90.10
2019-01-23T19:16:54.741Z,90.20
2019-01-23T19:19:22.618Z,90.20
2019-01-23T19:21:55.005Z,90.50
2019-01-23T19:24:20.830Z,90.70
2019-01-23T19:26:48.388Z,90.60
2019-01-23T19:29:15.938Z,90.20
2019-01-23T19:31:43.687Z,90.10
2019-01-23T19:34:11.376Z,90.20
2019-01-23T19:36:39.299Z,90.00
2019-01-23T19:39:08.399Z,89.20
2019-01-23T19:41:37.065Z,89.70
2019-01-23T19:44:06.092Z,90.40
2019-01-23T19:46:35.709Z,90.40
2019-01-23T19:49:03.562Z,90.00
2019-01-23T19:51:32.101Z,90.40
2019-01-23T19:53:59.930Z,90.20
2019-01-23T19:56:28.565Z,90.20
2019-01-23T19:58:56.257Z,89.20
2019-01-23T20:01:24.688Z,90.10
2019-01-23T20:03:53.209Z,90.40
2019-01-23T20:06:20.944Z,90.20
2019-01-23T20:08:49.816Z,90.30
2019-01-23T20:11:17.533Z,90.20
2019-01-23T20:13:45.417Z,90.00
2019-01-23T20:16:13.080Z,90.50
2019-01-23T20:18:41.698Z,90.80
2019-01-23T20:21:09.892Z,90.50
2019-01-23T20:23:37.505Z,90.20
2019-01-23T20:26:06.255Z,90.00
2019-01-23T20:28:39.430Z,90.30
2019-01-23T20:31:07.022Z,89.70
2019-01-23T20:33:45.751Z,90.00
2019-01-23T20:36:27.369Z,90.10
2019-01-23T20:39:08.927Z,90.00
2019-01-23T20:41:45.592Z,89.80
2019-01-23T20:44:19.924Z,90.00
2019-01-23T20:46:52.156Z,90.30
2019-01-23T20:49:20.221Z,90.40
2019-01-23T20:51:47.852Z,91.50
2019-01-23T20:54:15.714Z,90.90
2019-01-23T20:56:45.283Z,91.20
2019-01-23T20:59:15.993Z,91.30
2019-01-23T21:01:47.786Z,90.40
2019-01-23T21:04:16.887Z,90.40
2019-01-23T21:06:45.385Z,91.10
2019-01-23T21:09:18.623Z,91.20
2019-01-23T21:11:47.530Z,91.00
2019-01-23T21:14:15.302Z,91.20
2019-01-23T21:16:42.970Z,90.80
2019-01-23T21:19:10.556Z,90.60
2019-01-23T21:21:38.485Z,90.40
2019-01-23T21:24:07.806Z,90.60
2019-01-23T21:26:35.419Z,90.90
2019-01-23T21:29:03.242Z,90.40
2019-01-23T21:31:30.977Z,91.50
2019-01-23T21:33:58.608Z,90.30
2019-01-23T21:36:26.103Z,90.50
2019-01-23T21:38:53.802Z,90.30
2019-01-23T21:41:21.884Z,90.10
2019-01-23T21:43:49.643Z,89.80
2019-01-23T21:46:17.360Z,90.40
2019-01-23T21:48:45.222Z,90.10
2019-01-23T21:51:13.464Z,90.40
2019-01-23T21:53:41.096Z,90.10
2019-01-23T21:56:08.622Z,90.10
2019-01-23T21:58:36.860Z,91.00
2019-01-23T22:01:05.414Z,91.40
2019-01-23T22:03:33.222Z,91.10
2019-01-23T22:06:01.076Z,91.10
2019-01-23T22:08:28.665Z,91.00
2019-01-23T22:10:56.289Z,90.70
2019-01-23T22:13:24.471Z,90.30
2019-01-23T22:15:52.182Z,91.00
2019-01-23T22:18:19.763Z,90.90
2019-01-23T22:20:47.222Z,90.90
2019-01-23T22:23:14.831Z,90.30
2019-01-23T22:25:43.384Z,90.20
2019-01-23T22:28:10.887Z,90.30
2019-01-23T22:30:38.526Z,90.50
2019-01-23T22:33:06.179Z,90.80
2019-01-23T22:35:33.931Z,90.60
2019-01-23T22:38:02.025Z,90.60
2019-01-23T22:40:29.623Z,90.40
2019-01-23T22:42:57.250Z,90.60
2019-01-23T22:45:25.627Z,90.50
2019-01-23T22:47:53.100Z,92.30
2019-01-23T22:50:24.079Z,91.40
2019-01-23T22:52:51.956Z,91.00
2019-01-23T22:55:20.866Z,90.60
2019-01-23T22:57:48.466Z,90.80
2019-01-23T23:00:41.719Z,90.60
2019-01-23T23:03:13.621Z,91.10
2019-01-23T23:05:41.400Z,91.40
2019-01-23T23:08:08.980Z,90.70
2019-01-23T23:10:36.996Z,90.40
2019-01-23T23:13:04.758Z,90.80
2019-01-23T23:15:32.352Z,91.10
2019-01-23T23:17:59.878Z,91.50
2019-01-23T23:20:27.447Z,91.70
2019-01-23T23:22:54.954Z,91.10
2019-01-23T23:25:23.133Z,90.90
2019-01-23T23:27:50.887Z,90.60
2019-01-23T23:30:18.852Z,90.60
2019-01-23T23:32:46.380Z,91.70
2019-01-23T23:35:13.885Z,91.00
2019-01-23T23:37:41.617Z,91.00
2019-01-23T23:40:09.420Z,90.90
2019-01-23T23:42:37.064Z,91.10
2019-01-23T23:45:58.136Z,91.30
2019-01-23T23:48:25.777Z,90.90
2019-01-23T23:50:53.534Z,90.90
2019-01-23T23:53:21.556Z,90.60
2019-01-23T23:55:49.007Z,91.00
2019-01-23T23:58:16.722Z,90.60
